sensor_id;sensor_type;location;lat;lon;timestamp;P1;P4;P2;P0;N10;N4;N25;N1;N05;TS
71550;SPS30;59367;48.414;9.872;2023-02-21T00:00:51;4.470073223;;4.470073223;;;;;;;
71550;SPS30;59367;48.414;9.872;2023-02-21T00:01:56;4.691828251;;4.691828251;;;;;;;
71550;SPS30;59367;48.414;9.872;2023-02-21T00:03:01;3.963866711;;3.963866711;;;;;;;
71550;SPS30;59367;48.414;9.872;2023-02-21T00:04:05;4.258990765;;4.258990765;;;;;;;
71550;SPS30;59367;48.414;9.872;2023-02-21T00:05:10;4.624018669;;4.624018669;;;;;;;
71550;SPS30;59367;48.414;9.872;2023-02-21T00:06:14;5.099586964;;5.099586964;;;;;;;
71550;SPS30;59367;48.414;9.872;2023-02-21T00:07:19;5.071621418;;5.071621418;;;;;;;
71550;SPS30;59367;48.414;9.872;2023-02-21T00:08:24;4.823077679;;4.823077679;;;;;;;
71550;SPS30;59367;48.414;9.872;2023-02-21T00:09:29;4.630583286;;4.630583286;;;;;;;
71550;SPS30;59367;48.414;9.872;2023-02-21T00:10:33;4.250081062;;4.250081062;;;;;;;
71550;SPS30;59367;48.414;9.872;2023-02-21T00:11:41;4.498785019;;4.498785019;;;;;;;
71550;SPS30;59367;48.414;9.872;2023-02-21T00:12:46;5.116027832;;5.116027832;;;;;;;
71550;SPS30;59367;48.414;9.872;2023-02-21T00:13:51;4.510883331;;4.510883331;;;;;;;
71550;SPS30;59367;48.414;9.872;2023-02-21T00:14:55;5.020339489;;5.020339489;;;;;;;
71550;SPS30;59367;48.414;9.872;2023-02-21T00:16:00;5.143903255;;5.143903255;;;;;;;
71550;SPS30;59367;48.414;9.872;2023-02-21T00:17:05;4.402822495;;4.402822495;;;;;;;
71550;SPS30;59367;48.414;9.872;2023-02-21T00:18:09;4.560163975;;4.560163975;;;;;;;
71550;SPS30;59367;48.414;9.872;2023-02-21T00:19:14;4.956438541;;4.956438541;;;;;;;
71550;SPS30;59367;48.414;9.872;2023-02-21T00:20:19;5.239465237;;5.239465237;;;;;;;
71550;SPS30;59367;48.414;9.872;2023-02-21T00:21:23;4.654423237;;4.654423237;;;;;;;
71550;SPS30;59367;48.414;9.872;2023-02-21T00:22:29;4.547288418;;4.547288418;;;;;;;
71550;SPS30;59367;48.414;9.872;2023-02-21T00:23:34;4.680984497;;4.680984497;;;;;;;
71550;SPS30;59367;48.414;9.872;2023-02-21T00:24:39;4.480290413;;4.480290413;;;;;;;
71550;SPS30;59367;48.414;9.872;2023-02-21T00:25:44;4.939861774;;4.939861774;;;;;;;
71550;SPS30;59367;48.414;9.872;2023-02-21T00:26:49;4.562384605;;4.562384605;;;;;;;
71550;SPS30;59367;48.414;9.872;2023-02-21T00:27:53;4.554619789;;4.554619789;;;;;;;
71550;SPS30;59367;48.414;9.872;2023-02-21T00:28:58;4.727365494;;4.727365494;;;;;;;
71550;SPS30;59367;48.414;9.872;2023-02-21T00:30:02;4.799694061;;4.799694061;;;;;;;
71550;SPS30;59367;48.414;9.872;2023-02-21T00:31:08;5.762340546;;5.762340546;;;;;;;
71550;SPS30;59367;48.414;9.872;2023-02-21T00:32:12;5.600725174;;5.600725174;;;;;;;
71550;SPS30;59367;48.414;9.872;2023-02-21T00:33:17;5.083676338;;5.083676338;;;;;;;
71550;SPS30;59367;48.414;9.872;2023-02-21T00:34:21;5.389844418;;5.389844418;;;;;;;
71550;SPS30;59367;48.414;9.872;2023-02-21T00:35:26;5.394845963;;5.394845963;;;;;;;
71550;SPS30;59367;48.414;9.872;2023-02-21T00:36:30;4.963059425;;4.963059425;;;;;;;
71550;SPS30;59367;48.414;9.872;2023-02-21T00:37:35;5.034090519;;5.034090519;;;;;;;
71550;SPS30;59367;48.414;9.872;2023-02-21T00:38:39;4.806028366;;4.806028366;;;;;;;
71550;SPS30;59367;48.414;9.872;2023-02-21T00:39:44;4.941968918;;4.941968918;;;;;;;
71550;SPS30;59367;48.414;9.872;2023-02-21T00:40:48;4.835650921;;4.835650921;;;;;;;
71550;SPS30;59367;48.414;9.872;2023-02-21T00:41:53;4.37442255;;4.37442255;;;;;;;
71550;SPS30;59367;48.414;9.872;2023-02-21T00:42:57;4.810710907;;4.810710907;;;;;;;
71550;SPS30;59367;48.414;9.872;2023-02-21T00:44:02;5.145440102;;5.145440102;;;;;;;
71550;SPS30;59367;48.414;9.872;2023-02-21T00:45:07;4.704870701;;4.704870701;;;;;;;
71550;SPS30;59367;48.414;9.872;2023-02-21T00:46:12;4.832232475;;4.832191944;;;;;;;
71550;SPS30;59367;48.414;9.872;2023-02-21T00:47:17;5.059974194;;5.059974194;;;;;;;
71550;SPS30;59367;48.414;9.872;2023-02-21T00:48:22;4.517911911;;4.514709473;;;;;;;
71550;SPS30;59367;48.414;9.872;2023-02-21T00:49:27;4.845271111;;4.845262051;;;;;;;
71550;SPS30;59367;48.414;9.872;2023-02-21T00:50:31;4.3640275;;4.3640275;;;;;;;
71550;SPS30;59367;48.414;9.872;2023-02-21T00:51:36;4.753529072;;4.753529072;;;;;;;
71550;SPS30;59367;48.414;9.872;2023-02-21T00:52:40;4.539915562;;4.537438869;;;;;;;
71550;SPS30;59367;48.414;9.872;2023-02-21T00:53:45;4.547914982;;4.547914982;;;;;;;
71550;SPS30;59367;48.414;9.872;2023-02-21T00:54:49;4.599661827;;4.599661827;;;;;;;
71550;SPS30;59367;48.414;9.872;2023-02-21T00:55:54;4.608778;;4.604398251;;;;;;;
71550;SPS30;59367;48.414;9.872;2023-02-21T00:56:58;4.643685341;;4.606759071;;;;;;;
71550;SPS30;59367;48.414;9.872;2023-02-21T00:58:03;4.557852268;;4.557727337;;;;;;;
71550;SPS30;59367;48.414;9.872;2023-02-21T00:59:07;4.924442768;;4.924442768;;;;;;;
71550;SPS30;59367;48.414;9.872;2023-02-21T01:00:15;4.570477009;;4.570477009;;;;;;;
71550;SPS30;59367;48.414;9.872;2023-02-21T01:01:22;4.588338852;;4.588338852;;;;;;;
71550;SPS30;59367;48.414;9.872;2023-02-21T01:02:26;3.940644264;;3.940644264;;;;;;;
71550;SPS30;59367;48.414;9.872;2023-02-21T01:03:31;4.372413158;;4.372413158;;;;;;;
71550;SPS30;59367;48.414;9.872;2023-02-21T01:04:35;4.175075531;;4.175075531;;;;;;;
71550;SPS30;59367;48.414;9.872;2023-02-21T01:05:40;4.590205193;;4.590205193;;;;;;;
71550;SPS30;59367;48.414;9.872;2023-02-21T01:06:45;4.002372742;;4.002372742;;;;;;;
71550;SPS30;59367;48.414;9.872;2023-02-21T01:07:51;3.725749016;;3.725749016;;;;;;;
71550;SPS30;59367;48.414;9.872;2023-02-21T01:08:55;3.946485043;;3.938043118;;;;;;;
71550;SPS30;59367;48.414;9.872;2023-02-21T01:10:00;4.161136627;;4.161136627;;;;;;;
71550;SPS30;59367;48.414;9.872;2023-02-21T01:11:05;3.621260881;;3.621260881;;;;;;;
71550;SPS30;59367;48.414;9.872;2023-02-21T01:12:14;4.648776054;;4.648776054;;;;;;;
71550;SPS30;59367;48.414;9.872;2023-02-21T01:13:19;4.084134102;;4.084134102;;;;;;;
71550;SPS30;59367;48.414;9.872;2023-02-21T01:14:23;3.892555952;;3.892555952;;;;;;;
71550;SPS30;59367;48.414;9.872;2023-02-21T01:15:28;3.774406672;;3.774406672;;;;;;;
71550;SPS30;59367;48.414;9.872;2023-02-21T01:16:32;4.348212242;;4.348212242;;;;;;;
71550;SPS30;59367;48.414;9.872;2023-02-21T01:17:37;4.62764883;;4.62764883;;;;;;;
71550;SPS30;59367;48.414;9.872;2023-02-21T01:18:42;4.453089237;;4.453089237;;;;;;;
71550;SPS30;59367;48.414;9.872;2023-02-21T01:19:46;5.296537876;;5.296537876;;;;;;;
71550;SPS30;59367;48.414;9.872;2023-02-21T01:20:51;4.538016319;;4.538016319;;;;;;;
71550;SPS30;59367;48.414;9.872;2023-02-21T01:21:56;3.659122229;;3.659122229;;;;;;;
71550;SPS30;59367;48.414;9.872;2023-02-21T01:23:00;3.680631399;;3.680631399;;;;;;;
71550;SPS30;59367;48.414;9.872;2023-02-21T01:24:06;4.33293581;;4.33293581;;;;;;;
71550;SPS30;59367;48.414;9.872;2023-02-21T01:25:13;4.160587788;;4.160587788;;;;;;;
71550;SPS30;59367;48.414;9.872;2023-02-21T01:26:18;3.894258261;;3.894258261;;;;;;;
71550;SPS30;59367;48.414;9.872;2023-02-21T01:27:22;3.884815693;;3.884815693;;;;;;;
71550;SPS30;59367;48.414;9.872;2023-02-21T01:28:27;4.202296257;;4.202296257;;;;;;;
71550;SPS30;59367;48.414;9.872;2023-02-21T01:29:32;4.0729599;;4.0729599;;;;;;;
71550;SPS30;59367;48.414;9.872;2023-02-21T01:30:37;4.705619335;;4.705619335;;;;;;;
71550;SPS30;59367;48.414;9.872;2023-02-21T01:31:41;3.875778437;;3.875778437;;;;;;;
71550;SPS30;59367;48.414;9.872;2023-02-21T01:32:46;4.006363392;;4.006363392;;;;;;;
71550;SPS30;59367;48.414;9.872;2023-02-21T01:33:51;4.008955956;;4.008955956;;;;;;;
71550;SPS30;59367;48.414;9.872;2023-02-21T01:34:55;4.540171146;;4.540171146;;;;;;;
71550;SPS30;59367;48.414;9.872;2023-02-21T01:36:03;4.216688156;;4.216688156;;;;;;;
71550;SPS30;59367;48.414;9.872;2023-02-21T01:37:09;4.089294434;;4.089294434;;;;;;;
71550;SPS30;59367;48.414;9.872;2023-02-21T01:38:14;4.037316322;;4.037316322;;;;;;;
71550;SPS30;59367;48.414;9.872;2023-02-21T01:39:18;3.884171724;;3.884171724;;;;;;;
71550;SPS30;59367;48.414;9.872;2023-02-21T01:40:23;4.015841007;;4.015841007;;;;;;;
71550;SPS30;59367;48.414;9.872;2023-02-21T01:41:28;4.770683765;;4.770683765;;;;;;;
71550;SPS30;59367;48.414;9.872;2023-02-21T01:42:32;4.357416153;;4.357416153;;;;;;;
71550;SPS30;59367;48.414;9.872;2023-02-21T01:43:37;3.926756382;;3.926457644;;;;;;;
71550;SPS30;59367;48.414;9.872;2023-02-21T01:45:17;3.716097116;;3.716097116;;;;;;;
71550;SPS30;59367;48.414;9.872;2023-02-21T01:46:48;3.258137465;;3.258137465;;;;;;;
71550;SPS30;59367;48.414;9.872;2023-02-21T01:47:52;3.437570095;;3.437570095;;;;;;;
71550;SPS30;59367;48.414;9.872;2023-02-21T01:48:58;3.477470636;;3.477470636;;;;;;;
71550;SPS30;59367;48.414;9.872;2023-02-21T01:50:07;3.642814398;;3.642814398;;;;;;;
71550;SPS30;59367;48.414;9.872;2023-02-21T01:51:17;3.783784151;;3.783784151;;;;;;;
71550;SPS30;59367;48.414;9.872;2023-02-21T01:52:25;3.478556871;;3.478556871;;;;;;;
71550;SPS30;59367;48.414;9.872;2023-02-21T01:53:30;3.745971441;;3.745971441;;;;;;;
71550;SPS30;59367;48.414;9.872;2023-02-21T01:54:35;3.825519085;;3.825519085;;;;;;;
71550;SPS30;59367;48.414;9.872;2023-02-21T01:55:44;4.037178993;;4.037178993;;;;;;;
71550;SPS30;59367;48.414;9.872;2023-02-21T01:56:49;4.330785751;;4.330785751;;;;;;;
71550;SPS30;59367;48.414;9.872;2023-02-21T01:57:54;4.324298382;;4.324298382;;;;;;;
71550;SPS30;59367;48.414;9.872;2023-02-21T01:58:59;4.167686462;;4.167686462;;;;;;;
71550;SPS30;59367;48.414;9.872;2023-02-21T02:00:07;4.327413559;;4.327413559;;;;;;;
71550;SPS30;59367;48.414;9.872;2023-02-21T02:01:15;4.339489937;;4.339489937;;;;;;;
71550;SPS30;59367;48.414;9.872;2023-02-21T02:02:29;4.005184174;;4.005184174;;;;;;;
71550;SPS30;59367;48.414;9.872;2023-02-21T02:03:39;4.06611681;;4.06611681;;;;;;;
71550;SPS30;59367;48.414;9.872;2023-02-21T02:04:44;4.364184856;;4.363933563;;;;;;;
71550;SPS30;59367;48.414;9.872;2023-02-21T02:05:51;4.335258961;;4.335258961;;;;;;;
71550;SPS30;59367;48.414;9.872;2023-02-21T02:06:58;4.731892109;;4.731892109;;;;;;;
71550;SPS30;59367;48.414;9.872;2023-02-21T02:08:03;4.630355358;;4.630355358;;;;;;;
71550;SPS30;59367;48.414;9.872;2023-02-21T02:09:15;4.372826576;;4.372826576;;;;;;;
71550;SPS30;59367;48.414;9.872;2023-02-21T02:10:21;4.33599472;;4.33599472;;;;;;;
71550;SPS30;59367;48.414;9.872;2023-02-21T02:11:52;4.309971809;;4.309971809;;;;;;;
71550;SPS30;59367;48.414;9.872;2023-02-21T02:13:12;4.038627625;;4.038627625;;;;;;;
71550;SPS30;59367;48.414;9.872;2023-02-21T02:14:34;4.036134243;;4.036134243;;;;;;;
71550;SPS30;59367;48.414;9.872;2023-02-21T02:15:51;3.880723;;3.880723;;;;;;;
71550;SPS30;59367;48.414;9.872;2023-02-21T02:17:02;3.525443792;;3.525443792;;;;;;;
71550;SPS30;59367;48.414;9.872;2023-02-21T02:20:02;4.107447147;;4.079013348;;;;;;;
71550;SPS30;59367;48.414;9.872;2023-02-21T02:22:07;4.087803841;;4.060823441;;;;;;;
71550;SPS30;59367;48.414;9.872;2023-02-21T02:25:28;4.401145935;;4.401145935;;;;;;;
71550;SPS30;59367;48.414;9.872;2023-02-21T02:26:57;3.677774906;;3.677774906;;;;;;;
71550;SPS30;59367;48.414;9.872;2023-02-21T02:28:21;3.648493052;;3.648493052;;;;;;;
71550;SPS30;59367;48.414;9.872;2023-02-21T02:29:44;4.159374714;;4.159374714;;;;;;;
71550;SPS30;59367;48.414;9.872;2023-02-21T02:31:24;3.613277674;;3.613277674;;;;;;;
71550;SPS30;59367;48.414;9.872;2023-02-21T02:32:44;3.736083746;;3.736083746;;;;;;;
71550;SPS30;59367;48.414;9.872;2023-02-21T02:35:33;4.047412872;;4.047412872;;;;;;;
71550;SPS30;59367;48.414;9.872;2023-02-21T02:36:41;3.969812632;;3.969812632;;;;;;;
71550;SPS30;59367;48.414;9.872;2023-02-21T02:37:51;3.681676388;;3.681530476;;;;;;;
71550;SPS30;59367;48.414;9.872;2023-02-21T02:39:04;4.431358814;;4.431358814;;;;;;;
71550;SPS30;59367;48.414;9.872;2023-02-21T02:40:18;3.539322376;;3.539322376;;;;;;;
71550;SPS30;59367;48.414;9.872;2023-02-21T02:41:30;3.657502413;;3.657502413;;;;;;;
71550;SPS30;59367;48.414;9.872;2023-02-21T02:42:50;3.968898773;;3.968898773;;;;;;;
71550;SPS30;59367;48.414;9.872;2023-02-21T02:44:05;3.931158304;;3.931158304;;;;;;;
71550;SPS30;59367;48.414;9.872;2023-02-21T02:45:17;3.941352367;;3.941352367;;;;;;;
71550;SPS30;59367;48.414;9.872;2023-02-21T02:46:27;4.092739105;;4.092739105;;;;;;;
71550;SPS30;59367;48.414;9.872;2023-02-21T02:47:36;4.239812374;;4.239812374;;;;;;;
71550;SPS30;59367;48.414;9.872;2023-02-21T02:48:45;3.789387703;;3.789387703;;;;;;;
71550;SPS30;59367;48.414;9.872;2023-02-21T02:49:53;4.488489628;;4.488489628;;;;;;;
71550;SPS30;59367;48.414;9.872;2023-02-21T02:51:00;4.217786789;;4.217786789;;;;;;;
71550;SPS30;59367;48.414;9.872;2023-02-21T02:52:09;3.603491068;;3.603491068;;;;;;;
71550;SPS30;59367;48.414;9.872;2023-02-21T02:53:14;4.000273705;;4.000273705;;;;;;;
71550;SPS30;59367;48.414;9.872;2023-02-21T02:54:22;3.930622816;;3.930373907;;;;;;;
71550;SPS30;59367;48.414;9.872;2023-02-21T02:55:31;3.325149775;;3.319911242;;;;;;;
71550;SPS30;59367;48.414;9.872;2023-02-21T02:56:40;4.101075172;;4.086563587;;;;;;;
71550;SPS30;59367;48.414;9.872;2023-02-21T02:57:46;4.008398533;;4.008398533;;;;;;;
71550;SPS30;59367;48.414;9.872;2023-02-21T02:58:53;4.081654072;;4.081654072;;;;;;;
71550;SPS30;59367;48.414;9.872;2023-02-21T03:00:00;4.10801363;;4.10801363;;;;;;;
71550;SPS30;59367;48.414;9.872;2023-02-21T03:01:11;4.310862064;;4.310862064;;;;;;;
71550;SPS30;59367;48.414;9.872;2023-02-21T03:02:33;4.034655571;;4.033662319;;;;;;;
71550;SPS30;59367;48.414;9.872;2023-02-21T03:03:54;3.581751823;;3.581751823;;;;;;;
71550;SPS30;59367;48.414;9.872;2023-02-21T03:05:20;3.909798861;;3.909798861;;;;;;;
71550;SPS30;59367;48.414;9.872;2023-02-21T03:06:42;4.111363888;;4.111168861;;;;;;;
71550;SPS30;59367;48.414;9.872;2023-02-21T03:07:57;4.103465557;;4.103465557;;;;;;;
71550;SPS30;59367;48.414;9.872;2023-02-21T03:09:11;3.907459736;;3.893222809;;;;;;;
71550;SPS30;59367;48.414;9.872;2023-02-21T03:10:20;3.509490013;;3.49620223;;;;;;;
71550;SPS30;59367;48.414;9.872;2023-02-21T03:11:29;3.642730236;;3.635937452;;;;;;;
71550;SPS30;59367;48.414;9.872;2023-02-21T03:12:36;4.092848301;;4.068600178;;;;;;;
71550;SPS30;59367;48.414;9.872;2023-02-21T03:13:47;4.026821136;;4.026821136;;;;;;;
71550;SPS30;59367;48.414;9.872;2023-02-21T03:14:57;3.513643026;;3.513643026;;;;;;;
71550;SPS30;59367;48.414;9.872;2023-02-21T03:16:08;3.442699432;;3.434829473;;;;;;;
71550;SPS30;59367;48.414;9.872;2023-02-21T03:17:19;3.290367365;;3.290367365;;;;;;;
71550;SPS30;59367;48.414;9.872;2023-02-21T03:18:29;3.030991793;;3.030991793;;;;;;;
71550;SPS30;59367;48.414;9.872;2023-02-21T03:19:39;2.899237871;;2.899237871;;;;;;;
71550;SPS30;59367;48.414;9.872;2023-02-21T03:20:49;3.090376854;;3.090376854;;;;;;;
71550;SPS30;59367;48.414;9.872;2023-02-21T03:21:59;3.144669533;;3.144669533;;;;;;;
71550;SPS30;59367;48.414;9.872;2023-02-21T03:23:06;3.26252985;;3.26252985;;;;;;;
71550;SPS30;59367;48.414;9.872;2023-02-21T03:24:15;3.725219011;;3.725219011;;;;;;;
71550;SPS30;59367;48.414;9.872;2023-02-21T03:25:23;3.828479052;;3.828479052;;;;;;;
71550;SPS30;59367;48.414;9.872;2023-02-21T03:26:31;3.370458126;;3.370458126;;;;;;;
71550;SPS30;59367;48.414;9.872;2023-02-21T03:27:38;3.815946341;;3.815946341;;;;;;;
71550;SPS30;59367;48.414;9.872;2023-02-21T03:28:44;3.524193287;;3.524193287;;;;;;;
71550;SPS30;59367;48.414;9.872;2023-02-21T03:29:51;3.816874504;;3.816874504;;;;;;;
71550;SPS30;59367;48.414;9.872;2023-02-21T03:31:00;3.732406855;;3.732406855;;;;;;;
71550;SPS30;59367;48.414;9.872;2023-02-21T03:32:09;3.207441807;;3.207441807;;;;;;;
71550;SPS30;59367;48.414;9.872;2023-02-21T03:33:18;3.518055201;;3.518055201;;;;;;;
71550;SPS30;59367;48.414;9.872;2023-02-21T03:34:23;3.312302589;;3.312302589;;;;;;;
71550;SPS30;59367;48.414;9.872;2023-02-21T03:35:29;3.316500902;;3.316500902;;;;;;;
71550;SPS30;59367;48.414;9.872;2023-02-21T03:36:34;3.326901674;;3.326901674;;;;;;;
71550;SPS30;59367;48.414;9.872;2023-02-21T03:37:42;3.790663481;;3.790663481;;;;;;;
71550;SPS30;59367;48.414;9.872;2023-02-21T03:38:49;2.974279404;;2.974279404;;;;;;;
71550;SPS30;59367;48.414;9.872;2023-02-21T03:39:54;3.519243956;;3.519243956;;;;;;;
71550;SPS30;59367;48.414;9.872;2023-02-21T03:40:59;2.87182951;;2.87182951;;;;;;;
71550;SPS30;59367;48.414;9.872;2023-02-21T03:42:04;2.908142328;;2.908142328;;;;;;;
71550;SPS30;59367;48.414;9.872;2023-02-21T03:43:09;3.098668575;;3.098668575;;;;;;;
71550;SPS30;59367;48.414;9.872;2023-02-21T03:44:14;2.979944468;;2.977758169;;;;;;;
71550;SPS30;59367;48.414;9.872;2023-02-21T03:45:19;3.438894272;;3.436110497;;;;;;;
71550;SPS30;59367;48.414;9.872;2023-02-21T03:46:25;3.150288343;;3.140488148;;;;;;;
71550;SPS30;59367;48.414;9.872;2023-02-21T03:47:30;3.281706095;;3.281706095;;;;;;;
71550;SPS30;59367;48.414;9.872;2023-02-21T03:48:35;3.445044994;;3.445044994;;;;;;;
71550;SPS30;59367;48.414;9.872;2023-02-21T03:49:40;3.733337164;;3.733031511;;;;;;;
71550;SPS30;59367;48.414;9.872;2023-02-21T03:50:45;3.262508154;;3.262508154;;;;;;;
71550;SPS30;59367;48.414;9.872;2023-02-21T03:51:50;3.066620111;;3.066620111;;;;;;;
71550;SPS30;59367;48.414;9.872;2023-02-21T03:52:55;3.42041254;;3.42041254;;;;;;;
71550;SPS30;59367;48.414;9.872;2023-02-21T03:54:00;2.864986181;;2.864986181;;;;;;;
71550;SPS30;59367;48.414;9.872;2023-02-21T03:55:06;3.136959076;;3.136959076;;;;;;;
71550;SPS30;59367;48.414;9.872;2023-02-21T03:56:12;3.453465223;;3.453465223;;;;;;;
71550;SPS30;59367;48.414;9.872;2023-02-21T03:57:17;3.211726665;;3.211726665;;;;;;;
71550;SPS30;59367;48.414;9.872;2023-02-21T03:58:22;3.41514802;;3.41514802;;;;;;;
71550;SPS30;59367;48.414;9.872;2023-02-21T03:59:27;3.393658161;;3.393658161;;;;;;;
71550;SPS30;59367;48.414;9.872;2023-02-21T04:00:32;3.070250511;;3.070250511;;;;;;;
71550;SPS30;59367;48.414;9.872;2023-02-21T04:01:37;3.28998971;;3.28998971;;;;;;;
71550;SPS30;59367;48.414;9.872;2023-02-21T04:02:42;3.003638744;;3.003638744;;;;;;;
71550;SPS30;59367;48.414;9.872;2023-02-21T04:03:47;3.225576401;;3.225576401;;;;;;;
71550;SPS30;59367;48.414;9.872;2023-02-21T04:04:53;3.060717344;;3.060717344;;;;;;;
71550;SPS30;59367;48.414;9.872;2023-02-21T04:05:58;3.19481492;;3.19481492;;;;;;;
71550;SPS30;59367;48.414;9.872;2023-02-21T04:07:03;3.426429272;;3.426429272;;;;;;;
71550;SPS30;59367;48.414;9.872;2023-02-21T04:08:07;3.188930511;;3.188930511;;;;;;;
71550;SPS30;59367;48.414;9.872;2023-02-21T04:09:13;3.324210644;;3.324210644;;;;;;;
71550;SPS30;59367;48.414;9.872;2023-02-21T04:10:18;3.120420933;;3.120420933;;;;;;;
71550;SPS30;59367;48.414;9.872;2023-02-21T04:11:23;3.321565628;;3.321565628;;;;;;;
71550;SPS30;59367;48.414;9.872;2023-02-21T04:12:28;3.609761238;;3.609761238;;;;;;;
71550;SPS30;59367;48.414;9.872;2023-02-21T04:13:33;3.071470022;;3.071240187;;;;;;;
71550;SPS30;59367;48.414;9.872;2023-02-21T04:14:38;3.854240656;;3.854240656;;;;;;;
71550;SPS30;59367;48.414;9.872;2023-02-21T04:15:43;3.265648365;;3.265648365;;;;;;;
71550;SPS30;59367;48.414;9.872;2023-02-21T04:16:48;3.708658934;;3.700777292;;;;;;;
71550;SPS30;59367;48.414;9.872;2023-02-21T04:17:53;3.353962898;;3.33873105;;;;;;;
71550;SPS30;59367;48.414;9.872;2023-02-21T04:18:58;3.068392515;;3.054809093;;;;;;;
71550;SPS30;59367;48.414;9.872;2023-02-21T04:20:03;3.226442814;;3.200762272;;;;;;;
71550;SPS30;59367;48.414;9.872;2023-02-21T04:21:09;3.355524778;;3.323554277;;;;;;;
71550;SPS30;59367;48.414;9.872;2023-02-21T04:22:17;3.37641573;;3.361473083;;;;;;;
71550;SPS30;59367;48.414;9.872;2023-02-21T04:23:22;3.231419802;;3.223213196;;;;;;;
71550;SPS30;59367;48.414;9.872;2023-02-21T04:24:27;3.321371555;;3.296580553;;;;;;;
71550;SPS30;59367;48.414;9.872;2023-02-21T04:25:32;3.679270267;;3.657811403;;;;;;;
71550;SPS30;59367;48.414;9.872;2023-02-21T04:26:37;3.243722439;;3.225147009;;;;;;;
71550;SPS30;59367;48.414;9.872;2023-02-21T04:27:42;3.435616016;;3.423532486;;;;;;;
71550;SPS30;59367;48.414;9.872;2023-02-21T04:28:47;3.223796606;;3.223792553;;;;;;;
71550;SPS30;59367;48.414;9.872;2023-02-21T04:29:52;3.232411623;;3.232411623;;;;;;;
71550;SPS30;59367;48.414;9.872;2023-02-21T04:30:57;3.81321454;;3.81321454;;;;;;;
71550;SPS30;59367;48.414;9.872;2023-02-21T04:32:02;3.372643709;;3.372643709;;;;;;;
71550;SPS30;59367;48.414;9.872;2023-02-21T04:33:07;3.36564374;;3.36564374;;;;;;;
71550;SPS30;59367;48.414;9.872;2023-02-21T04:34:12;3.613132715;;3.613132715;;;;;;;
71550;SPS30;59367;48.414;9.872;2023-02-21T04:35:17;3.275231361;;3.275231361;;;;;;;
71550;SPS30;59367;48.414;9.872;2023-02-21T04:36:22;3.800595999;;3.800595999;;;;;;;
71550;SPS30;59367;48.414;9.872;2023-02-21T04:37:27;3.173997402;;3.173997402;;;;;;;
71550;SPS30;59367;48.414;9.872;2023-02-21T04:38:32;3.123889923;;3.123889923;;;;;;;
71550;SPS30;59367;48.414;9.872;2023-02-21T04:39:37;2.941106558;;2.941106558;;;;;;;
71550;SPS30;59367;48.414;9.872;2023-02-21T04:40:42;3.225105286;;3.225105286;;;;;;;
71550;SPS30;59367;48.414;9.872;2023-02-21T04:41:47;3.038142204;;3.038142204;;;;;;;
71550;SPS30;59367;48.414;9.872;2023-02-21T04:42:53;2.846265316;;2.846265316;;;;;;;
71550;SPS30;59367;48.414;9.872;2023-02-21T04:43:58;3.432193518;;3.40618968;;;;;;;
71550;SPS30;59367;48.414;9.872;2023-02-21T04:45:03;3.205782652;;3.200770855;;;;;;;
71550;SPS30;59367;48.414;9.872;2023-02-21T04:46:08;3.300415039;;3.287643194;;;;;;;
71550;SPS30;59367;48.414;9.872;2023-02-21T04:47:15;3.274312973;;3.245330334;;;;;;;
71550;SPS30;59367;48.414;9.872;2023-02-21T04:48:20;3.085823298;;3.079603434;;;;;;;
71550;SPS30;59367;48.414;9.872;2023-02-21T04:49:26;3.104965687;;3.089763165;;;;;;;
71550;SPS30;59367;48.414;9.872;2023-02-21T04:50:31;2.735492229;;2.728256464;;;;;;;
71550;SPS30;59367;48.414;9.872;2023-02-21T04:51:36;2.935578823;;2.933793783;;;;;;;
71550;SPS30;59367;48.414;9.872;2023-02-21T04:52:41;3.349261761;;3.348088741;;;;;;;
71550;SPS30;59367;48.414;9.872;2023-02-21T04:53:47;2.923317194;;2.923317194;;;;;;;
71550;SPS30;59367;48.414;9.872;2023-02-21T04:54:53;3.062276363;;3.059571028;;;;;;;
71550;SPS30;59367;48.414;9.872;2023-02-21T04:55:59;2.894370556;;2.890310764;;;;;;;
71550;SPS30;59367;48.414;9.872;2023-02-21T04:57:03;3.188342571;;3.188342571;;;;;;;
71550;SPS30;59367;48.414;9.872;2023-02-21T04:58:08;3.255732298;;3.255732298;;;;;;;
71550;SPS30;59367;48.414;9.872;2023-02-21T04:59:13;3.532538652;;3.532538652;;;;;;;
71550;SPS30;59367;48.414;9.872;2023-02-21T05:00:19;3.113063097;;3.113063097;;;;;;;
71550;SPS30;59367;48.414;9.872;2023-02-21T05:01:25;3.222610712;;3.222610712;;;;;;;
71550;SPS30;59367;48.414;9.872;2023-02-21T05:02:31;3.21642065;;3.21642065;;;;;;;
71550;SPS30;59367;48.414;9.872;2023-02-21T05:03:36;2.908858061;;2.908858061;;;;;;;
71550;SPS30;59367;48.414;9.872;2023-02-21T05:04:41;3.294825315;;3.294825315;;;;;;;
71550;SPS30;59367;48.414;9.872;2023-02-21T05:05:46;3.376922131;;3.376922131;;;;;;;
71550;SPS30;59367;48.414;9.872;2023-02-21T05:06:51;3.256091595;;3.256091595;;;;;;;
71550;SPS30;59367;48.414;9.872;2023-02-21T05:07:56;2.426711798;;2.426711798;;;;;;;
71550;SPS30;59367;48.414;9.872;2023-02-21T05:09:02;3.166857958;;3.166857958;;;;;;;
71550;SPS30;59367;48.414;9.872;2023-02-21T05:10:07;2.329026461;;2.329026461;;;;;;;
71550;SPS30;59367;48.414;9.872;2023-02-21T05:11:13;2.712385893;;2.712385893;;;;;;;
71550;SPS30;59367;48.414;9.872;2023-02-21T05:12:18;2.790697336;;2.790697336;;;;;;;
71550;SPS30;59367;48.414;9.872;2023-02-21T05:13:23;2.665932894;;2.665932894;;;;;;;
71550;SPS30;59367;48.414;9.872;2023-02-21T05:14:28;3.084245443;;3.084245443;;;;;;;
71550;SPS30;59367;48.414;9.872;2023-02-21T05:15:33;3.36113143;;3.36113143;;;;;;;
71550;SPS30;59367;48.414;9.872;2023-02-21T05:16:38;2.835123777;;2.835123777;;;;;;;
71550;SPS30;59367;48.414;9.872;2023-02-21T05:17:43;3.354375839;;3.354375839;;;;;;;
71550;SPS30;59367;48.414;9.872;2023-02-21T05:18:48;3.020657301;;3.020657301;;;;;;;
71550;SPS30;59367;48.414;9.872;2023-02-21T05:19:54;2.632869005;;2.632869005;;;;;;;
71550;SPS30;59367;48.414;9.872;2023-02-21T05:20:59;2.874479771;;2.865885735;;;;;;;
71550;SPS30;59367;48.414;9.872;2023-02-21T05:22:04;2.626112938;;2.611304998;;;;;;;
71550;SPS30;59367;48.414;9.872;2023-02-21T05:23:09;3.134757042;;3.113184929;;;;;;;
71550;SPS30;59367;48.414;9.872;2023-02-21T05:24:14;2.784767628;;2.784735441;;;;;;;
71550;SPS30;59367;48.414;9.872;2023-02-21T05:25:20;3.043187857;;3.043187857;;;;;;;
71550;SPS30;59367;48.414;9.872;2023-02-21T05:26:26;3.239642859;;3.233332634;;;;;;;
71550;SPS30;59367;48.414;9.872;2023-02-21T05:27:35;2.751451254;;2.750786543;;;;;;;
71550;SPS30;59367;48.414;9.872;2023-02-21T05:28:40;2.370248795;;2.368240833;;;;;;;